Time;durP1;ratioP1;P1;durP2;ratioP2;P2;SDS_P1;SDS_P2;PMS_P1;PMS_P2;Temp;Humidity;BMP_temperature;BMP_pressure;BME280_temperature;BME280_humidity;BME280_pressure;Samples;Min_cycle;Max_cycle;Signal;HPM_P1;HPM_P2
2022/09/26 00:01:11;;;;;;;6.00;4.43;;;10.90;99.90;;;;;;4934600;28;20143;-73
2022/09/26 00:03:38;;;;;;;7.38;4.97;;;10.90;99.90;;;;;;4946293;28;20530;-74
2022/09/26 00:06:06;;;;;;;6.82;4.60;;;11.00;99.90;;;;;;4926827;29;20130;-73
2022/09/26 00:08:33;;;;;;;6.70;4.63;;;11.00;99.90;;;;;;4916378;29;20044;-73
2022/09/26 00:11:01;;;;;;;8.82;4.80;;;11.00;99.90;;;;;;4913966;29;20044;-73
2022/09/26 00:13:29;;;;;;;7.70;4.50;;;11.00;99.90;;;;;;4924194;29;20047;-73
2022/09/26 00:15:55;;;;;;;7.20;4.65;;;11.00;99.90;;;;;;4927677;29;20048;-74
2022/09/26 00:18:21;;;;;;;7.25;4.70;;;11.00;99.90;;;;;;4921115;29;20094;-73
2022/09/26 00:20:47;;;;;;;8.48;4.70;;;11.00;99.90;;;;;;4926341;28;20054;-73
2022/09/26 00:23:13;;;;;;;7.70;5.15;;;11.00;99.90;;;;;;4921271;29;20051;-72
2022/09/26 00:25:46;;;;;;;7.20;4.63;;;11.10;99.90;;;;;;4926932;29;20043;-73
2022/09/26 00:28:13;;;;;;;5.13;4.20;;;11.10;99.90;;;;;;4915917;29;20047;-72
2022/09/26 00:30:39;;;;;;;7.13;4.03;;;11.10;99.90;;;;;;4910742;28;20082;-72
2022/09/26 00:33:05;;;;;;;7.07;4.15;;;11.10;99.90;;;;;;4951226;28;20063;-73
2022/09/26 00:35:31;;;;;;;6.00;3.95;;;11.10;99.90;;;;;;4932122;28;20043;-72
2022/09/26 00:37:57;;;;;;;5.57;3.95;;;11.20;99.90;;;;;;4928538;29;20058;-73
2022/09/26 00:40:25;;;;;;;7.57;4.00;;;11.10;99.90;;;;;;4886049;29;20105;-74
2022/09/26 00:42:55;;;;;;;9.32;3.70;;;11.20;99.90;;;;;;4919934;29;20047;-73
2022/09/26 00:45:24;;;;;;;4.70;3.30;;;11.20;99.90;;;;;;4932896;28;20094;-73
2022/09/26 00:47:58;;;;;;;8.00;4.03;;;11.20;99.90;;;;;;4931241;29;20648;-73
2022/09/26 00:50:37;;;;;;;7.72;3.55;;;11.20;99.90;;;;;;4910484;28;20058;-73
2022/09/26 00:53:09;;;;;;;8.43;3.63;;;11.20;99.90;;;;;;4934805;29;20102;-72
2022/09/26 00:55:57;;;;;;;6.57;3.42;;;11.20;99.90;;;;;;4928519;29;20051;-74
2022/09/26 00:58:31;;;;;;;6.25;3.17;;;11.20;99.90;;;;;;4927998;29;20035;-73
2022/09/26 01:00:59;;;;;;;6.78;3.10;;;11.20;99.90;;;;;;4926958;29;20503;-73
2022/09/26 01:03:28;;;;;;;4.65;2.85;;;11.20;99.90;;;;;;4931460;28;20051;-73
2022/09/26 01:05:55;;;;;;;5.68;2.78;;;11.20;99.90;;;;;;4928995;29;20055;-74
2022/09/26 01:08:30;;;;;;;6.45;3.05;;;11.20;99.90;;;;;;4912087;29;20055;-72
2022/09/26 01:10:57;;;;;;;7.00;2.78;;;11.20;99.90;;;;;;4924682;29;20110;-72
2022/09/26 01:13:24;;;;;;;7.75;2.92;;;11.20;99.90;;;;;;4924500;29;20051;-74
2022/09/26 01:15:50;;;;;;;6.55;2.80;;;11.20;99.90;;;;;;4901995;29;20051;-72
2022/09/26 01:18:15;;;;;;;6.28;2.58;;;11.20;99.90;;;;;;4904344;29;20081;-73
2022/09/26 01:21:19;;;;;;;5.90;2.70;;;11.20;99.90;;;;;;4915802;29;20047;-73
2022/09/26 01:23:50;;;;;;;7.10;2.55;;;11.20;99.90;;;;;;4942424;28;20058;-73
2022/09/26 01:26:30;;;;;;;4.35;2.15;;;11.10;99.90;;;;;;4925103;29;20055;-73
2022/09/26 01:29:24;;;;;;;6.90;2.47;;;11.20;99.90;;;;;;4913478;29;20102;-73
2022/09/26 01:35:25;;;;;;;5.65;2.65;;;11.20;99.90;;;;;;4922535;28;20150;-73
2022/09/26 01:38:19;;;;;;;7.18;2.65;;;11.20;99.90;;;;;;4922424;28;20063;-73
2022/09/26 01:41:10;;;;;;;6.93;2.92;;;11.20;99.90;;;;;;4930814;28;20055;-72
2022/09/26 01:43:40;;;;;;;7.72;2.97;;;11.20;99.90;;;;;;4932089;29;20458;-72
2022/09/26 01:46:20;;;;;;;;;;;11.20;99.90;;;;;;4932632;29;20039;-72
2022/09/26 01:49:10;;;;;;;7.07;2.88;;;11.20;99.90;;;;;;4947516;28;19922;-73
2022/09/26 01:51:52;;;;;;;7.63;2.78;;;11.20;99.90;;;;;;4918906;29;20540;-73
2022/09/26 01:54:24;;;;;;;7.05;2.90;;;11.20;99.90;;;;;;4906735;29;20087;-73
2022/09/26 01:56:53;;;;;;;7.28;2.80;;;11.20;99.90;;;;;;4909775;29;20134;-72
2022/09/26 01:59:33;;;;;;;5.88;2.97;;;11.20;99.90;;;;;;4924069;29;20234;-73
2022/09/26 02:02:09;;;;;;;7.28;2.72;;;11.20;99.90;;;;;;4900029;29;20073;-73
2022/09/26 02:04:40;;;;;;;5.25;2.67;;;11.20;99.90;;;;;;4906713;29;20134;-73
2022/09/26 02:07:17;;;;;;;6.53;2.80;;;11.20;99.90;;;;;;4916119;29;20143;-73
2022/09/26 02:10:04;;;;;;;4.82;2.60;;;11.20;99.90;;;;;;4925759;29;20085;-73
2022/09/26 02:12:38;;;;;;;6.60;2.65;;;11.20;99.90;;;;;;4917883;29;20107;-72
2022/09/26 02:15:08;;;;;;;7.82;3.15;;;11.20;99.90;;;;;;4902142;29;20048;-73
2022/09/26 02:17:44;;;;;;;7.22;3.08;;;11.20;99.90;;;;;;4905127;29;20059;-74
2022/09/26 02:20:22;;;;;;;8.88;3.22;;;11.20;99.90;;;;;;4918456;29;20071;-73
2022/09/26 02:22:48;;;;;;;8.48;3.47;;;11.30;99.90;;;;;;4920612;29;20043;-73
2022/09/26 02:25:14;;;;;;;5.88;2.95;;;11.20;99.90;;;;;;4934017;29;20047;-73
2022/09/26 02:27:40;;;;;;;6.93;3.50;;;11.20;99.90;;;;;;4882877;29;20577;-73
2022/09/26 02:30:06;;;;;;;9.65;3.60;;;11.20;99.90;;;;;;4917281;29;20051;-73
2022/09/26 02:32:33;;;;;;;8.52;3.40;;;11.30;99.90;;;;;;4904886;29;20123;-72
2022/09/26 02:35:00;;;;;;;7.00;4.00;;;11.20;99.90;;;;;;4883758;29;20066;-74
2022/09/26 02:37:29;;;;;;;6.40;3.20;;;11.30;99.90;;;;;;4920084;29;20040;-74
2022/09/26 02:39:56;;;;;;;8.73;4.22;;;11.30;99.90;;;;;;4898154;29;20059;-73
2022/09/26 02:42:48;;;;;;;7.90;4.38;;;11.30;99.90;;;;;;4921881;29;20047;-73
2022/09/26 02:45:31;;;;;;;6.78;4.03;;;11.20;99.90;;;;;;4906135;29;20060;-73
2022/09/26 02:48:03;;;;;;;6.18;4.20;;;11.30;99.90;;;;;;4919418;29;20122;-73
2022/09/26 02:51:00;;;;;;;7.43;4.78;;;11.20;99.90;;;;;;4937442;28;20067;-74
2022/09/26 02:53:40;;;;;;;7.88;5.38;;;11.20;99.90;;;;;;4929368;28;20047;-73
2022/09/26 02:56:44;;;;;;;9.68;6.22;;;11.20;99.90;;;;;;4925064;29;20083;-73
2022/09/26 02:59:16;;;;;;;8.95;5.88;;;11.20;99.90;;;;;;4929297;29;20046;-72
2022/09/26 03:01:54;;;;;;;9.38;5.78;;;11.10;99.90;;;;;;4947345;28;20055;-73
2022/09/26 03:04:26;;;;;;;10.10;6.90;;;11.10;99.90;;;;;;4934068;29;20058;-73
2022/09/26 03:06:57;;;;;;;12.05;6.95;;;11.10;99.90;;;;;;4924995;29;20078;-73
2022/09/26 03:09:26;;;;;;;9.65;6.47;;;11.10;99.90;;;;;;4930465;29;20047;-72
2022/09/26 03:11:53;;;;;;;8.82;6.88;;;11.10;99.90;;;;;;4927249;29;20085;-73
2022/09/26 03:14:22;;;;;;;10.23;8.15;;;11.00;99.90;;;;;;4914807;29;20055;-73
2022/09/26 03:16:49;;;;;;;10.35;8.05;;;11.00;99.90;;;;;;4923153;29;20107;-73
2022/09/26 03:19:30;;;;;;;12.32;8.00;;;11.00;99.90;;;;;;4913049;28;20474;-73
2022/09/26 03:21:57;;;;;;;11.15;7.55;;;11.00;99.90;;;;;;4935822;29;20051;-73
2022/09/26 03:24:24;;;;;;;12.77;8.95;;;11.00;99.90;;;;;;4928603;29;20051;-72
2022/09/26 03:26:50;;;;;;;10.52;8.15;;;11.00;99.90;;;;;;4927931;29;20512;-73
2022/09/26 03:29:18;;;;;;;12.95;8.20;;;11.00;99.90;;;;;;4912429;29;20047;-73
2022/09/26 03:31:45;;;;;;;11.38;8.43;;;11.00;99.90;;;;;;4912570;29;20047;-73
2022/09/26 03:34:10;;;;;;;12.95;10.00;;;11.00;99.90;;;;;;4915586;29;20375;-73
2022/09/26 03:36:38;;;;;;;14.13;9.15;;;11.00;99.90;;;;;;4909396;29;20058;-73
2022/09/26 03:39:04;;;;;;;12.25;8.82;;;11.00;99.90;;;;;;4922556;29;20077;-73
2022/09/26 03:41:30;;;;;;;11.43;9.20;;;10.90;99.90;;;;;;4912841;29;20110;-73
2022/09/26 03:43:56;;;;;;;13.80;10.18;;;10.90;99.90;;;;;;4915239;29;20050;-73
2022/09/26 03:46:23;;;;;;;11.68;9.82;;;11.00;99.90;;;;;;4915600;29;20079;-73
2022/09/26 03:48:49;;;;;;;11.98;8.95;;;11.00;99.90;;;;;;4923853;29;20055;-72
2022/09/26 03:51:16;;;;;;;10.40;8.50;;;11.00;99.90;;;;;;4926355;29;20505;-72
2022/09/26 03:53:45;;;;;;;11.77;9.23;;;11.00;99.90;;;;;;4912242;29;20130;-72
2022/09/26 03:56:15;;;;;;;10.75;9.13;;;11.00;99.90;;;;;;4915986;29;20056;-72
2022/09/26 03:58:41;;;;;;;12.57;9.55;;;11.00;99.90;;;;;;4915897;29;20386;-71
2022/09/26 04:01:10;;;;;;;14.63;10.15;;;11.00;99.90;;;;;;4917947;28;20051;-71
2022/09/26 04:03:37;;;;;;;10.90;9.63;;;11.00;99.90;;;;;;4906394;29;20051;-72
2022/09/26 04:06:07;;;;;;;11.32;10.10;;;11.00;99.90;;;;;;4935795;28;20113;-72
2022/09/26 04:08:33;;;;;;;12.90;9.13;;;11.00;99.90;;;;;;4915054;29;20048;-71
2022/09/26 04:11:07;;;;;;;16.65;10.82;;;11.00;99.90;;;;;;4925700;29;20098;-71
2022/09/26 04:13:33;;;;;;;12.18;9.93;;;11.00;99.90;;;;;;4940317;28;20524;-72
2022/09/26 04:16:00;;;;;;;13.35;10.98;;;11.00;99.90;;;;;;4912480;29;20050;-73
2022/09/26 04:18:27;;;;;;;13.45;11.20;;;11.00;99.90;;;;;;4941285;28;20097;-72
2022/09/26 04:21:06;;;;;;;14.80;11.73;;;11.00;99.90;;;;;;4933786;28;20047;-73
2022/09/26 04:23:34;;;;;;;15.70;11.95;;;11.00;99.90;;;;;;4949643;28;20151;-73
2022/09/26 04:26:09;;;;;;;13.00;10.68;;;10.90;99.90;;;;;;4924016;29;20090;-73
2022/09/26 04:28:35;;;;;;;13.23;10.57;;;10.90;99.90;;;;;;4941654;29;20062;-73
2022/09/26 04:31:02;;;;;;;13.50;11.32;;;10.90;99.90;;;;;;4932266;28;20166;-74
2022/09/26 04:33:29;;;;;;;12.82;11.50;;;10.90;99.90;;;;;;4915588;29;20047;-73
2022/09/26 04:36:03;;;;;;;17.15;13.50;;;10.90;99.90;;;;;;4927069;29;20055;-73
2022/09/26 04:38:33;;;;;;;13.13;11.82;;;10.90;99.90;;;;;;4937374;28;20059;-73
2022/09/26 04:41:10;;;;;;;15.87;13.37;;;10.90;99.90;;;;;;4917876;29;20055;-73
2022/09/26 04:43:37;;;;;;;13.13;11.82;;;10.90;99.90;;;;;;4927689;29;20813;-73
2022/09/26 04:46:15;;;;;;;15.23;12.30;;;10.80;99.90;;;;;;4913154;29;20047;-73
2022/09/26 04:48:41;;;;;;;13.45;12.05;;;10.90;99.90;;;;;;4914468;28;20043;-74
2022/09/26 04:51:09;;;;;;;14.85;12.82;;;10.90;99.90;;;;;;4946923;28;20047;-73
2022/09/26 04:53:37;;;;;;;13.57;11.70;;;10.90;99.90;;;;;;4927680;28;20506;-73
2022/09/26 04:56:04;;;;;;;13.98;12.52;;;10.90;99.90;;;;;;4929323;29;20045;-73
2022/09/26 04:58:29;;;;;;;15.27;13.48;;;10.90;99.90;;;;;;4926530;28;20071;-73
2022/09/26 05:01:09;;;;;;;14.82;13.43;;;10.90;99.90;;;;;;4891059;29;20114;-69
2022/09/26 05:03:36;;;;;;;14.65;13.05;;;10.90;99.90;;;;;;4931591;28;20059;-70
2022/09/26 05:06:07;;;;;;;15.07;13.20;;;10.90;99.90;;;;;;4924187;29;20061;-68
2022/09/26 05:08:41;;;;;;;15.80;13.73;;;10.90;99.90;;;;;;4933243;28;20054;-68
2022/09/26 05:11:08;;;;;;;16.27;13.40;;;10.90;99.90;;;;;;4928617;29;20040;-69
2022/09/26 05:13:35;;;;;;;15.00;13.45;;;10.90;99.90;;;;;;4923773;29;20054;-68
2022/09/26 05:16:02;;;;;;;17.00;14.88;;;10.90;99.90;;;;;;4923951;29;20745;-69
2022/09/26 05:18:28;;;;;;;14.75;13.25;;;10.80;99.90;;;;;;4934094;28;20047;-69
2022/09/26 05:21:00;;;;;;;15.52;13.82;;;10.90;99.90;;;;;;4934810;29;20573;-69
2022/09/26 05:26:26;;;;;;;15.13;13.60;;;10.80;99.90;;;;;;4927320;28;20051;-73
2022/09/26 05:29:16;;;;;;;15.20;13.60;;;10.80;99.90;;;;;;4916706;29;20051;-73
2022/09/26 05:31:42;;;;;;;15.27;13.50;;;10.80;99.90;;;;;;4945913;29;20548;-73
2022/09/26 05:34:12;;;;;;;15.50;14.00;;;10.80;99.90;;;;;;4937950;28;20310;-73
2022/09/26 05:36:38;;;;;;;15.00;13.60;;;10.80;99.90;;;;;;4918657;28;20569;-72
2022/09/26 05:40:55;;;;;;;14.73;13.13;;;10.80;99.90;;;;;;4910428;29;20054;-74
2022/09/26 05:41:53;;;;;;;14.95;12.88;;;10.70;99.90;;;;;;4936554;28;20047;-74
2022/09/26 05:44:19;;;;;;;17.67;14.18;;;10.70;99.90;;;;;;4928475;29;20146;-74
2022/09/26 05:46:46;;;;;;;13.70;12.30;;;10.70;99.90;;;;;;4932286;29;20126;-74
2022/09/26 05:49:13;;;;;;;16.42;12.90;;;10.70;99.90;;;;;;4926919;29;20050;-74
2022/09/26 05:51:40;;;;;;;15.38;13.48;;;10.70;99.90;;;;;;4901611;29;20058;-74
2022/09/26 05:54:06;;;;;;;15.18;13.38;;;10.70;99.90;;;;;;4899906;29;20044;-74
2022/09/26 05:56:36;;;;;;;16.45;13.18;;;10.70;99.90;;;;;;4941340;28;20046;-72
2022/09/26 05:59:03;;;;;;;16.88;14.20;;;10.70;99.90;;;;;;4907137;29;20048;-71
2022/09/26 06:01:30;;;;;;;14.73;13.23;;;10.60;99.90;;;;;;4915577;29;20048;-71
2022/09/26 06:03:56;;;;;;;16.33;14.10;;;10.60;99.90;;;;;;4911871;29;20055;-71
2022/09/26 06:06:22;;;;;;;13.40;12.10;;;10.60;99.90;;;;;;4911395;29;20582;-72
2022/09/26 06:08:48;;;;;;;14.98;13.45;;;10.60;99.90;;;;;;4880942;29;20048;-72
2022/09/26 06:11:16;;;;;;;14.80;13.30;;;10.60;99.90;;;;;;4910208;29;20395;-74
2022/09/26 06:13:44;;;;;;;15.60;12.85;;;10.60;99.90;;;;;;4915414;29;20503;-73
2022/09/26 06:16:13;;;;;;;15.77;10.95;;;10.60;99.90;;;;;;4901335;29;20048;-74
2022/09/26 06:18:40;;;;;;;13.20;11.80;;;10.60;99.90;;;;;;4931460;29;20576;-74
2022/09/26 06:21:11;;;;;;;13.98;11.77;;;10.60;99.90;;;;;;4913009;29;20047;-74
2022/09/26 06:23:37;;;;;;;14.10;10.88;;;10.60;99.90;;;;;;4902347;29;20487;-74
2022/09/26 06:26:08;;;;;;;12.68;11.10;;;10.60;99.90;;;;;;4906116;29;20115;-74
2022/09/26 06:28:38;;;;;;;11.88;10.77;;;10.60;99.90;;;;;;4913323;29;20047;-74
2022/09/26 06:31:15;;;;;;;11.52;10.20;;;10.60;99.90;;;;;;4910771;29;20050;-73
2022/09/26 06:33:41;;;;;;;13.43;9.90;;;10.60;99.90;;;;;;4911214;29;20102;-74
2022/09/26 06:36:09;;;;;;;12.23;10.57;;;10.60;99.90;;;;;;4887250;29;20044;-74
2022/09/26 06:38:36;;;;;;;14.93;11.20;;;10.60;99.90;;;;;;4922452;29;20340;-73
2022/09/26 06:41:02;;;;;;;11.13;9.93;;;10.60;99.90;;;;;;4931046;29;20043;-74
2022/09/26 06:43:30;;;;;;;13.20;10.40;;;10.60;99.90;;;;;;4913069;29;20052;-75
2022/09/26 06:45:56;;;;;;;13.13;10.05;;;10.60;99.90;;;;;;4895173;29;20040;-74
2022/09/26 06:48:23;;;;;;;14.10;9.25;;;10.60;99.90;;;;;;4917460;29;20050;-74
2022/09/26 06:50:54;;;;;;;15.00;9.27;;;10.60;99.90;;;;;;4907111;29;20122;-74
2022/09/26 06:53:20;;;;;;;;;;;10.60;99.90;;;;;;4930541;28;20066;-74
2022/09/26 06:55:46;;;;;;;12.18;10.68;;;10.60;99.90;;;;;;4928170;29;19993;-74
2022/09/26 06:58:12;;;;;;;12.15;8.80;;;10.50;99.90;;;;;;4900611;29;20609;-74
2022/09/26 07:00:38;;;;;;;12.30;9.63;;;10.60;99.90;;;;;;4921559;28;20055;-74
2022/09/26 07:03:04;;;;;;;9.98;8.45;;;10.60;99.90;;;;;;4902336;29;20399;-74
2022/09/26 07:05:30;;;;;;;10.40;9.00;;;10.60;99.90;;;;;;4900922;29;20103;-74
2022/09/26 07:07:57;;;;;;;10.48;8.23;;;10.60;99.90;;;;;;4910702;29;20051;-73
2022/09/26 07:10:23;;;;;;;9.23;7.60;;;10.60;99.90;;;;;;4907650;29;21303;-75
2022/09/26 07:12:49;;;;;;;10.07;7.90;;;10.60;99.90;;;;;;4913230;29;20043;-72
2022/09/26 07:15:19;;;;;;;10.50;7.82;;;10.60;99.90;;;;;;4919254;29;20521;-72
2022/09/26 07:17:50;;;;;;;10.48;7.70;;;10.50;99.90;;;;;;4920253;29;20138;-72
2022/09/26 07:20:18;;;;;;;10.70;8.57;;;10.50;99.90;;;;;;4953213;28;20130;-72
2022/09/26 07:22:45;;;;;;;11.88;8.02;;;10.50;99.90;;;;;;4924688;28;20453;-73
2022/09/26 07:25:12;;;;;;;8.60;7.70;;;10.50;99.90;;;;;;4915343;29;20138;-73
2022/09/26 07:27:39;;;;;;;9.68;7.32;;;10.50;99.90;;;;;;4926522;28;20066;-73
2022/09/26 07:30:08;;;;;;;9.20;7.00;;;10.50;99.90;;;;;;4927960;29;20078;-73
2022/09/26 07:32:35;;;;;;;9.30;7.57;;;10.50;99.90;;;;;;4956172;28;20074;-73
2022/09/26 07:35:04;;;;;;;11.82;8.20;;;10.50;99.90;;;;;;4917235;29;20055;-73
2022/09/26 07:37:30;;;;;;;9.55;8.00;;;10.50;99.90;;;;;;4924820;29;20430;-73
2022/09/26 07:39:56;;;;;;;10.27;7.30;;;10.60;99.90;;;;;;4894912;29;20057;-73
2022/09/26 07:42:22;;;;;;;10.88;7.88;;;10.60;99.90;;;;;;4920751;28;20047;-74
2022/09/26 07:44:48;;;;;;;10.35;7.70;;;10.60;99.90;;;;;;4929394;29;20074;-73
2022/09/26 07:50:11;;;;;;;10.77;7.38;;;10.50;99.90;;;;;;4925086;29;20482;-73
2022/09/26 07:52:38;;;;;;;9.10;7.07;;;10.60;99.90;;;;;;4935349;29;20055;-74
2022/09/26 07:55:05;;;;;;;9.75;7.13;;;10.50;99.90;;;;;;4908335;28;20513;-74
2022/09/26 07:57:34;;;;;;;10.80;7.45;;;10.60;99.90;;;;;;4921625;29;20055;-74
2022/09/26 08:00:00;;;;;;;10.68;6.35;;;10.60;99.90;;;;;;4948029;28;20055;-74
2022/09/26 08:02:32;;;;;;;9.68;6.75;;;10.60;99.90;;;;;;4915278;29;20050;-74
2022/09/26 08:04:59;;;;;;;11.23;7.15;;;10.60;99.90;;;;;;4932758;28;20061;-74
2022/09/26 08:07:25;;;;;;;9.63;6.32;;;10.60;99.90;;;;;;4917222;29;20040;-74
2022/09/26 08:09:54;;;;;;;9.80;7.07;;;10.60;99.90;;;;;;4930802;28;20606;-74
2022/09/26 08:12:19;;;;;;;9.68;6.43;;;10.70;99.90;;;;;;4936332;28;20134;-74
2022/09/26 08:14:48;;;;;;;8.85;6.32;;;10.70;99.90;;;;;;4925963;28;20559;-74
2022/09/26 08:17:17;;;;;;;9.98;6.88;;;10.70;99.90;;;;;;4936529;28;20047;-72
2022/09/26 08:19:43;;;;;;;9.18;6.30;;;10.80;99.90;;;;;;4919428;29;20043;-74
2022/09/26 08:22:10;;;;;;;11.57;7.25;;;10.80;99.90;;;;;;4931903;29;20410;-74
2022/09/26 08:24:36;;;;;;;9.10;6.45;;;10.90;99.90;;;;;;4920311;28;20371;-73
2022/09/26 08:27:02;;;;;;;9.30;6.45;;;10.90;99.90;;;;;;4934197;29;20051;-74
2022/09/26 08:29:31;;;;;;;8.90;6.05;;;10.90;99.90;;;;;;4928678;28;20075;-75
2022/09/26 08:31:57;;;;;;;7.55;6.05;;;11.00;99.90;;;;;;4916489;29;20043;-75
2022/09/26 08:34:23;;;;;;;9.77;6.22;;;11.00;99.90;;;;;;4893235;28;20545;-74
2022/09/26 08:36:53;;;;;;;8.40;5.80;;;11.00;99.90;;;;;;4912770;29;20043;-75
2022/09/26 08:39:23;;;;;;;8.82;6.28;;;11.00;99.90;;;;;;4910868;29;20051;-74
2022/09/26 08:42:17;;;;;;;12.30;6.97;;;11.10;99.90;;;;;;4928079;29;20332;-74
2022/09/26 08:46:28;;;;;;;8.57;6.25;;;11.10;99.90;;;;;;4928068;28;20054;-74
2022/09/26 08:48:18;;;;;;;8.23;5.70;;;11.10;99.90;;;;;;4916939;29;20128;-74
2022/09/26 08:50:50;;;;;;;6.45;5.30;;;11.10;99.90;;;;;;4909510;29;20055;-74
2022/09/26 08:53:23;;;;;;;10.57;6.32;;;11.10;99.90;;;;;;4911936;29;20043;-74
2022/09/26 08:55:52;;;;;;;9.02;5.57;;;11.20;99.90;;;;;;4914926;29;20521;-74
2022/09/26 08:58:21;;;;;;;7.50;5.97;;;11.20;99.90;;;;;;4916909;29;20079;-74
2022/09/26 09:00:53;;;;;;;8.63;6.57;;;11.20;99.90;;;;;;4909713;29;20481;-74
2022/09/26 09:03:23;;;;;;;8.57;5.78;;;11.30;99.90;;;;;;4916723;29;20060;-75
2022/09/26 09:05:53;;;;;;;9.27;5.43;;;11.30;99.90;;;;;;4922798;29;20133;-74
2022/09/26 09:08:24;;;;;;;9.18;5.38;;;11.40;99.90;;;;;;4896452;29;20243;-74
2022/09/26 09:11:11;;;;;;;11.20;5.07;;;11.40;99.90;;;;;;4906971;29;20094;-74
2022/09/26 09:13:56;;;;;;;9.30;5.63;;;11.50;99.90;;;;;;4904153;29;20398;-74
2022/09/26 09:16:41;;;;;;;8.88;5.25;;;11.50;99.90;;;;;;4903541;29;20075;-75
2022/09/26 09:19:38;;;;;;;8.45;5.10;;;11.60;99.90;;;;;;4929688;29;20446;-75
2022/09/26 09:22:26;;;;;;;7.20;4.50;;;11.60;99.90;;;;;;4915531;29;20051;-74
2022/09/26 09:25:03;;;;;;;7.40;5.10;;;11.70;99.90;;;;;;4891131;29;20494;-74
2022/09/26 09:28:20;;;;;;;8.98;5.65;;;11.70;99.90;;;;;;4920242;29;20050;-74
2022/09/26 09:30:50;;;;;;;9.45;5.25;;;11.70;99.90;;;;;;4871050;29;20123;-74
2022/09/26 09:33:28;;;;;;;8.10;5.28;;;11.70;99.90;;;;;;4901951;29;20086;-74
2022/09/26 09:36:07;;;;;;;11.00;5.70;;;11.70;99.90;;;;;;4905481;29;20055;-74
2022/09/26 09:38:36;;;;;;;9.32;6.03;;;11.70;99.90;;;;;;4923289;29;20457;-74
2022/09/26 09:41:08;;;;;;;10.50;6.60;;;11.80;99.90;;;;;;4932555;29;20047;-74
2022/09/26 09:43:39;;;;;;;10.38;5.82;;;11.80;99.90;;;;;;4911820;29;20051;-75
2022/09/26 09:46:32;;;;;;;8.95;6.10;;;11.80;99.90;;;;;;4913124;29;20107;-75
2022/09/26 09:49:07;;;;;;;7.70;5.68;;;11.80;99.90;;;;;;4914511;29;20043;-74
2022/09/26 09:51:41;;;;;;;8.85;5.90;;;11.80;99.90;;;;;;4913196;29;20055;-74
2022/09/26 09:54:32;;;;;;;10.70;6.60;;;11.80;99.90;;;;;;4919726;29;20122;-74
2022/09/26 09:57:11;;;;;;;9.38;6.35;;;11.80;99.90;;;;;;4909837;29;20084;-73
2022/09/26 10:00:06;;;;;;;9.23;6.93;;;11.80;99.90;;;;;;4911566;29;20036;-74
2022/09/26 10:02:58;;;;;;;10.48;7.40;;;11.80;99.90;;;;;;4912535;29;20051;-74
2022/09/26 10:05:50;;;;;;;10.73;6.85;;;11.80;99.90;;;;;;4916599;29;20050;-74
2022/09/26 10:08:30;;;;;;;11.25;6.68;;;11.80;99.90;;;;;;4912008;29;20374;-74
2022/09/26 10:11:01;;;;;;;;;;;11.80;99.90;;;;;;4908091;29;20050;-73
2022/09/26 10:13:30;;;;;;;7.10;6.15;;;11.80;99.90;;;;;;4897435;29;19939;-74
2022/09/26 10:16:03;;;;;;;10.25;7.30;;;11.80;99.90;;;;;;4910811;29;20410;-74
2022/09/26 10:18:30;;;;;;;9.77;6.57;;;11.80;99.90;;;;;;4918327;29;20073;-74
2022/09/26 10:21:11;;;;;;;10.30;6.30;;;11.90;99.90;;;;;;4901340;29;20432;-74
2022/09/26 10:23:43;;;;;;;10.63;6.97;;;11.90;99.90;;;;;;4916711;29;20072;-74
2022/09/26 10:26:10;;;;;;;11.93;7.03;;;11.90;99.90;;;;;;4909027;29;20059;-74
2022/09/26 10:28:42;;;;;;;9.35;7.20;;;11.90;99.90;;;;;;4931640;29;20395;-73
2022/09/26 10:31:10;;;;;;;10.32;6.95;;;11.90;99.90;;;;;;4905266;29;20488;-74
2022/09/26 10:33:42;;;;;;;13.07;7.85;;;11.80;99.90;;;;;;4926647;29;20753;-74
2022/09/26 10:36:21;;;;;;;13.70;7.45;;;11.80;99.90;;;;;;4909435;29;20514;-73
2022/09/26 10:42:21;;;;;;;11.25;6.85;;;11.80;99.90;;;;;;4911813;29;20051;-73
2022/09/26 10:44:49;;;;;;;9.88;6.97;;;11.80;99.90;;;;;;4888933;29;20050;-74
2022/09/26 10:47:18;;;;;;;9.75;6.82;;;11.80;99.90;;;;;;4895140;29;20047;-74
2022/09/26 10:49:49;;;;;;;12.57;7.53;;;11.80;99.90;;;;;;4910180;29;20051;-73
2022/09/26 10:52:42;;;;;;;10.23;6.88;;;11.80;99.90;;;;;;4924946;29;20521;-74
2022/09/26 10:55:11;;;;;;;11.07;6.38;;;11.80;99.90;;;;;;4927157;28;20142;-74
2022/09/26 10:57:48;;;;;;;8.15;6.47;;;11.80;99.90;;;;;;4942686;28;20581;-73
2022/09/26 11:00:20;;;;;;;10.88;6.93;;;11.80;99.90;;;;;;4913149;28;20093;-74
2022/09/26 11:02:51;;;;;;;10.60;7.35;;;11.80;99.90;;;;;;4938202;28;20051;-74
2022/09/26 11:08:09;;;;;;;10.73;8.60;;;11.80;99.90;;;;;;4939164;28;20447;-72
2022/09/26 11:10:40;;;;;;;9.82;7.75;;;11.80;99.90;;;;;;4933293;29;20043;-73
2022/09/26 11:13:22;;;;;;;11.43;7.97;;;11.80;99.90;;;;;;4891403;29;20063;-72
2022/09/26 11:16:02;;;;;;;9.57;7.72;;;11.80;99.90;;;;;;4922388;29;20043;-73
2022/09/26 11:18:41;;;;;;;9.65;8.35;;;11.80;99.90;;;;;;4931873;28;20169;-75
2022/09/26 11:21:29;;;;;;;11.30;10.20;;;11.80;99.90;;;;;;4918541;29;20114;-74
2022/09/26 11:24:13;;;;;;;10.65;9.32;;;11.80;99.90;;;;;;4920149;29;20057;-73
2022/09/26 11:27:04;;;;;;;10.93;9.82;;;11.80;99.90;;;;;;4940194;28;20054;-72
2022/09/26 11:29:57;;;;;;;12.15;9.38;;;11.70;99.90;;;;;;4924102;28;20421;-72
2022/09/26 11:32:39;;;;;;;10.48;9.43;;;11.70;99.90;;;;;;4926581;29;20126;-73
2022/09/26 11:35:32;;;;;;;12.00;10.10;;;11.70;99.90;;;;;;4933967;29;20063;-73
2022/09/26 11:38:12;;;;;;;13.20;9.32;;;11.70;99.90;;;;;;4911355;28;20113;-74
2022/09/26 11:40:38;;;;;;;;;;;11.70;99.90;;;;;;4933628;28;20074;-74
2022/09/26 11:43:24;;;;;;;12.10;10.05;;;11.70;99.90;;;;;;4919051;28;20366;-74
2022/09/26 11:46:09;;;;;;;10.13;9.15;;;11.70;99.90;;;;;;4926169;29;20594;-74
2022/09/26 11:49:01;;;;;;;12.18;9.52;;;11.70;99.90;;;;;;4919406;29;20059;-74
2022/09/26 11:51:42;;;;;;;11.27;10.20;;;11.70;99.90;;;;;;4936166;28;20051;-74
2022/09/26 11:54:15;;;;;;;10.60;9.38;;;11.70;99.90;;;;;;4946000;28;20130;-75
2022/09/26 11:57:10;;;;;;;10.63;9.60;;;11.70;99.90;;;;;;4914983;29;20653;-74
2022/09/26 12:00:23;;;;;;;9.98;8.45;;;11.80;99.90;;;;;;4918230;29;20113;-75
2022/09/26 12:03:13;;;;;;;11.57;10.35;;;11.80;99.90;;;;;;4908422;29;20497;-74
2022/09/26 12:06:09;;;;;;;13.32;10.68;;;11.80;99.90;;;;;;4900882;28;20049;-74
2022/09/26 12:08:56;;;;;;;10.75;9.55;;;11.80;99.90;;;;;;4923677;29;20043;-74
2022/09/26 12:11:28;;;;;;;8.45;7.53;;;11.80;99.90;;;;;;4929472;29;20047;-75
2022/09/26 12:14:26;;;;;;;9.77;8.77;;;11.80;99.90;;;;;;4928248;28;20078;-74
2022/09/26 12:17:08;;;;;;;9.80;8.80;;;11.90;99.90;;;;;;4899370;29;20518;-74
2022/09/26 12:19:58;;;;;;;9.55;8.65;;;11.90;99.90;;;;;;4921501;28;20048;-74
2022/09/26 12:22:41;;;;;;;8.88;7.97;;;11.90;99.90;;;;;;4924473;29;20294;-75
2022/09/26 12:25:33;;;;;;;8.88;7.93;;;11.90;99.90;;;;;;4934433;28;20047;-74
2022/09/26 12:28:24;;;;;;;9.10;7.65;;;11.90;99.90;;;;;;4922609;29;20051;-74
2022/09/26 12:31:20;;;;;;;10.00;8.18;;;11.90;99.90;;;;;;4919843;28;20058;-75
2022/09/26 12:34:25;;;;;;;10.13;9.15;;;11.90;99.90;;;;;;4906225;29;20055;-76
2022/09/26 12:37:00;;;;;;;9.90;8.35;;;12.00;99.90;;;;;;4900893;29;20073;-76
2022/09/26 12:39:40;;;;;;;10.95;9.20;;;12.00;99.90;;;;;;4928571;29;20044;-76
2022/09/26 12:42:47;;;;;;;11.82;10.52;;;12.00;99.90;;;;;;4922620;28;20130;-76
2022/09/26 12:45:15;;;;;;;13.27;12.02;;;12.10;99.90;;;;;;4918488;29;20724;-75
2022/09/26 12:47:51;;;;;;;8.18;7.30;;;12.10;99.90;;;;;;4934840;28;20126;-76
2022/09/26 12:50:33;;;;;;;8.75;7.53;;;12.10;99.90;;;;;;4920151;29;20059;-76
2022/09/26 12:53:18;;;;;;;9.43;8.43;;;12.10;99.90;;;;;;4925748;29;20054;-76
2022/09/26 12:55:59;;;;;;;8.00;7.20;;;12.10;99.90;;;;;;4911116;29;20039;-76
2022/09/26 12:58:37;;;;;;;7.78;6.97;;;12.20;99.90;;;;;;4920427;28;20083;-76
2022/09/26 13:01:22;;;;;;;6.63;6.03;;;12.20;99.90;;;;;;4933089;29;20054;-76
2022/09/26 13:04:26;;;;;;;7.20;6.60;;;12.10;99.90;;;;;;4929976;29;20047;-76
2022/09/26 13:07:16;;;;;;;8.80;7.45;;;12.10;99.90;;;;;;4928808;29;20051;-76
2022/09/26 13:09:54;;;;;;;8.10;6.22;;;12.20;99.90;;;;;;4926955;28;20110;-76
2022/09/26 13:12:40;;;;;;;7.55;6.00;;;12.20;99.90;;;;;;4935920;29;20056;-76
2022/09/26 13:15:33;;;;;;;7.00;6.30;;;12.20;99.90;;;;;;4924344;29;20055;-76
2022/09/26 13:18:06;;;;;;;6.95;5.05;;;12.30;99.90;;;;;;4908952;29;20549;-76
2022/09/26 13:20:43;;;;;;;6.43;5.00;;;12.20;99.90;;;;;;4925512;29;20582;-76
2022/09/26 13:23:14;;;;;;;6.75;5.50;;;12.30;99.90;;;;;;4938916;29;20047;-76
2022/09/26 13:25:49;;;;;;;6.05;5.00;;;12.30;99.90;;;;;;4924779;29;20565;-76
2022/09/26 13:28:32;;;;;;;6.85;5.30;;;12.30;99.90;;;;;;4941275;28;20134;-76
2022/09/26 13:31:24;;;;;;;5.20;4.70;;;12.30;99.90;;;;;;4927957;28;20115;-76